createdAt,value
2023-06-22T00:01:54.904Z,3.70
2023-06-22T00:04:21.052Z,3.30
2023-06-22T00:06:47.251Z,3.10
2023-06-22T00:09:13.358Z,3.40
2023-06-22T00:11:39.516Z,3.10
2023-06-22T00:14:05.630Z,3.20
2023-06-22T00:16:31.802Z,2.60
2023-06-22T00:19:00.901Z,2.50
2023-06-22T00:21:26.981Z,3.00
2023-06-22T00:23:53.288Z,3.00
2023-06-22T00:26:19.539Z,2.40
2023-06-22T00:28:45.641Z,3.00
2023-06-22T00:31:11.823Z,3.30
2023-06-22T00:33:38.031Z,2.80
2023-06-22T00:36:04.160Z,2.90
2023-06-22T00:38:30.465Z,3.10
2023-06-22T00:40:56.585Z,2.90
2023-06-22T00:43:22.785Z,3.40
2023-06-22T00:45:48.920Z,3.30
2023-06-22T00:48:15.257Z,3.40
2023-06-22T00:50:41.338Z,4.00
2023-06-22T00:53:08.628Z,3.60
2023-06-22T00:55:37.810Z,3.40
2023-06-22T00:58:06.056Z,3.60
2023-06-22T01:00:33.237Z,3.50
2023-06-22T01:02:59.561Z,3.60
2023-06-22T01:05:25.834Z,3.60
2023-06-22T01:07:53.473Z,3.90
2023-06-22T01:10:19.633Z,3.20
2023-06-22T01:12:45.876Z,4.00
2023-06-22T01:15:12.032Z,3.70
2023-06-22T01:17:38.367Z,3.70
2023-06-22T01:20:07.383Z,3.80
2023-06-22T01:22:33.510Z,3.50
2023-06-22T01:24:59.800Z,3.60
2023-06-22T01:27:25.907Z,3.50
2023-06-22T01:29:52.012Z,3.70
2023-06-22T01:32:18.208Z,3.40
2023-06-22T01:34:44.366Z,3.60
2023-06-22T01:37:10.554Z,3.30
2023-06-22T01:39:36.727Z,3.80
2023-06-22T01:42:02.899Z,4.40
2023-06-22T01:44:29.015Z,4.30
2023-06-22T01:46:55.183Z,4.00
2023-06-22T01:49:21.863Z,4.30
2023-06-22T01:51:47.954Z,3.60
2023-06-22T01:54:14.094Z,4.10
2023-06-22T01:56:40.186Z,4.30
2023-06-22T01:59:06.592Z,4.10
2023-06-22T02:01:32.786Z,4.10
2023-06-22T02:03:59.104Z,4.20
2023-06-22T02:06:25.393Z,4.10
2023-06-22T02:08:51.578Z,4.10
2023-06-22T02:11:17.648Z,3.80
2023-06-22T02:13:43.858Z,3.70
2023-06-22T02:16:10.013Z,3.60
2023-06-22T02:18:36.653Z,3.50
2023-06-22T02:21:02.915Z,3.70
2023-06-22T02:23:29.122Z,3.10
2023-06-22T02:25:55.408Z,4.10
2023-06-22T02:28:21.626Z,4.30
2023-06-22T02:30:47.802Z,4.30
2023-06-22T02:33:13.963Z,4.80
2023-06-22T02:35:40.277Z,4.60
2023-06-22T02:38:06.456Z,4.30
2023-06-22T02:40:32.591Z,4.70
2023-06-22T02:43:02.163Z,4.30
2023-06-22T02:45:28.315Z,3.70
2023-06-22T02:47:54.532Z,4.90
2023-06-22T02:50:20.699Z,4.10
2023-06-22T02:52:46.979Z,4.40
2023-06-22T02:55:13.111Z,4.90
2023-06-22T02:57:44.018Z,4.40
2023-06-22T03:00:17.248Z,4.10
2023-06-22T03:02:43.958Z,4.60
2023-06-22T03:05:13.833Z,4.50
2023-06-22T03:07:40.055Z,4.30
2023-06-22T03:10:06.186Z,4.10
2023-06-22T03:12:32.296Z,4.90
2023-06-22T03:14:58.639Z,4.80
2023-06-22T03:17:24.868Z,4.50
2023-06-22T03:19:51.238Z,4.80
2023-06-22T03:22:17.365Z,4.60
2023-06-22T03:24:43.548Z,4.30
2023-06-22T03:27:09.787Z,4.40
2023-06-22T03:29:36.000Z,4.20
2023-06-22T03:32:02.378Z,3.90
2023-06-22T03:34:28.774Z,5.00
2023-06-22T03:36:54.934Z,4.60
2023-06-22T03:39:21.118Z,4.70
2023-06-22T03:41:47.294Z,4.60
2023-06-22T03:44:13.499Z,3.90
2023-06-22T03:46:39.615Z,4.30
2023-06-22T03:49:06.013Z,4.60
2023-06-22T03:51:32.216Z,4.80
2023-06-22T03:53:58.280Z,4.70
2023-06-22T03:56:24.465Z,4.00
2023-06-22T03:58:51.222Z,4.30
2023-06-22T04:01:17.520Z,4.20
2023-06-22T04:03:44.006Z,4.30
2023-06-22T04:06:10.267Z,4.20
2023-06-22T04:08:36.404Z,4.50
2023-06-22T04:11:02.543Z,4.50
2023-06-22T04:13:28.802Z,4.90
2023-06-22T04:15:54.934Z,5.00
2023-06-22T04:18:21.168Z,5.20
2023-06-22T04:20:47.378Z,4.80
2023-06-22T04:23:13.469Z,4.90
2023-06-22T04:25:39.544Z,4.10
2023-06-22T04:28:05.820Z,4.50
2023-06-22T04:30:32.168Z,4.50
2023-06-22T04:32:58.899Z,5.50
2023-06-22T04:35:25.549Z,5.50
2023-06-22T04:37:55.083Z,6.20
2023-06-22T04:40:21.194Z,6.60
2023-06-22T04:42:52.639Z,6.30
2023-06-22T04:45:18.770Z,5.30
2023-06-22T04:47:45.924Z,5.40
2023-06-22T04:50:12.250Z,6.00
2023-06-22T04:52:38.452Z,5.50
2023-06-22T04:55:04.565Z,5.40
2023-06-22T04:57:34.465Z,5.00
2023-06-22T05:00:13.187Z,4.50
2023-06-22T05:02:39.465Z,4.50
2023-06-22T05:05:07.480Z,4.70
2023-06-22T05:07:33.706Z,5.00
2023-06-22T05:09:59.972Z,4.50
2023-06-22T05:12:26.060Z,4.20
2023-06-22T05:14:52.168Z,4.90
2023-06-22T05:17:19.453Z,4.80
2023-06-22T05:19:48.495Z,4.70
2023-06-22T05:22:14.838Z,4.70
2023-06-22T05:24:40.962Z,5.00
2023-06-22T05:27:07.053Z,4.40
2023-06-22T05:29:33.307Z,4.50
2023-06-22T05:31:59.489Z,5.10
2023-06-22T05:34:25.602Z,5.10
2023-06-22T05:36:51.762Z,5.20
2023-06-22T05:39:17.948Z,5.10
2023-06-22T05:41:44.113Z,4.40
2023-06-22T05:44:10.250Z,4.70
2023-06-22T05:46:36.466Z,4.70
2023-06-22T05:49:02.569Z,4.40
2023-06-22T05:51:28.949Z,4.30
2023-06-22T05:53:55.255Z,4.70
2023-06-22T05:56:21.404Z,4.60
2023-06-22T05:58:47.684Z,3.90
2023-06-22T06:01:15.973Z,4.30
2023-06-22T06:03:42.258Z,3.70
2023-06-22T06:06:08.747Z,4.30
2023-06-22T06:08:35.022Z,4.50
2023-06-22T06:11:01.195Z,4.50
2023-06-22T06:13:27.303Z,4.70
2023-06-22T06:15:55.513Z,4.30
2023-06-22T06:18:21.553Z,5.00
2023-06-22T06:20:47.689Z,5.00
2023-06-22T06:23:13.861Z,4.10
2023-06-22T06:25:39.970Z,4.80
2023-06-22T06:28:06.132Z,3.90
2023-06-22T06:30:32.804Z,5.10
2023-06-22T06:32:59.468Z,5.40
2023-06-22T06:35:25.867Z,4.80
2023-06-22T06:37:52.025Z,4.50
2023-06-22T06:40:18.167Z,4.60
2023-06-22T06:42:45.519Z,4.50
2023-06-22T06:45:11.886Z,4.60
2023-06-22T06:47:38.327Z,4.30
2023-06-22T06:50:04.585Z,4.70
2023-06-22T06:52:30.907Z,4.10
2023-06-22T06:54:57.030Z,3.80
2023-06-22T06:57:23.092Z,4.00
2023-06-22T06:59:49.490Z,3.90
2023-06-22T07:02:15.706Z,3.80
2023-06-22T07:04:41.901Z,4.10
2023-06-22T07:07:08.226Z,4.50
2023-06-22T07:09:34.417Z,4.50
2023-06-22T07:12:00.644Z,4.50
2023-06-22T07:14:26.972Z,3.90
2023-06-22T07:16:53.174Z,4.40
2023-06-22T07:19:19.345Z,4.10
2023-06-22T07:21:45.465Z,4.40
2023-06-22T07:24:11.560Z,4.30
2023-06-22T07:26:37.661Z,4.00
2023-06-22T07:29:04.836Z,4.10
2023-06-22T07:31:31.151Z,4.30
2023-06-22T07:33:57.277Z,4.20
2023-06-22T07:36:23.505Z,4.40
2023-06-22T07:38:49.601Z,4.10
2023-06-22T07:41:16.441Z,4.90
2023-06-22T07:43:42.687Z,4.60
2023-06-22T07:46:08.998Z,5.10
2023-06-22T07:48:35.227Z,5.00
2023-06-22T07:51:01.584Z,5.80
2023-06-22T07:53:28.790Z,4.80
2023-06-22T07:55:54.943Z,4.90
2023-06-22T07:58:21.316Z,5.60
2023-06-22T08:00:48.659Z,5.80
2023-06-22T08:03:14.873Z,5.80
2023-06-22T08:05:41.241Z,5.40
2023-06-22T08:08:07.396Z,5.50
2023-06-22T08:10:33.603Z,5.80
2023-06-22T08:13:00.091Z,6.40
2023-06-22T08:15:26.345Z,6.10
2023-06-22T08:17:52.945Z,5.50
2023-06-22T08:20:19.493Z,5.70
2023-06-22T08:22:45.622Z,5.30
2023-06-22T08:25:11.784Z,7.00
2023-06-22T08:27:38.011Z,6.30
2023-06-22T08:30:04.223Z,6.70
2023-06-22T08:32:30.450Z,6.60
2023-06-22T08:34:56.697Z,7.30
2023-06-22T08:37:30.785Z,7.80
2023-06-22T08:39:57.136Z,7.90
2023-06-22T08:42:24.549Z,7.50
2023-06-22T08:44:50.742Z,9.20
2023-06-22T08:47:16.866Z,8.50
2023-06-22T08:49:43.056Z,8.70
2023-06-22T08:52:09.227Z,8.10
2023-06-22T08:54:35.409Z,9.40
2023-06-22T08:57:01.658Z,8.50
2023-06-22T08:59:27.837Z,8.00
2023-06-22T09:01:54.773Z,7.80
2023-06-22T09:04:25.061Z,8.30
2023-06-22T09:06:52.744Z,7.90
2023-06-22T09:09:19.030Z,8.70
2023-06-22T09:11:45.279Z,8.80
2023-06-22T09:14:11.529Z,8.80
2023-06-22T09:16:37.876Z,9.00
2023-06-22T09:19:04.272Z,8.90
2023-06-22T09:21:31.996Z,8.30
2023-06-22T09:23:59.301Z,7.90
2023-06-22T09:26:25.709Z,7.50
2023-06-22T09:28:51.906Z,8.70
2023-06-22T09:31:18.043Z,8.40
2023-06-22T09:33:44.767Z,8.00
2023-06-22T09:36:10.876Z,8.30
2023-06-22T09:38:36.997Z,8.30
2023-06-22T09:41:03.189Z,7.80
2023-06-22T09:43:29.538Z,8.00
2023-06-22T09:45:55.706Z,8.80
2023-06-22T09:48:21.843Z,8.10
2023-06-22T09:50:47.959Z,7.50
2023-06-22T09:53:14.179Z,8.70
2023-06-22T09:55:40.540Z,8.00
2023-06-22T09:58:06.753Z,7.60
2023-06-22T10:00:32.914Z,8.40
2023-06-22T10:03:01.293Z,8.30
2023-06-22T10:05:28.331Z,7.40
2023-06-22T10:07:54.770Z,7.80
2023-06-22T10:10:20.992Z,7.70
2023-06-22T10:12:47.214Z,8.10
2023-06-22T10:15:13.427Z,8.50
2023-06-22T10:17:40.353Z,8.60
2023-06-22T10:20:12.294Z,8.00
2023-06-22T10:22:38.645Z,7.50
2023-06-22T10:25:04.846Z,7.00
2023-06-22T10:27:31.968Z,7.80
2023-06-22T10:29:58.245Z,7.50
2023-06-22T10:32:24.373Z,7.10
2023-06-22T10:34:50.646Z,7.40
2023-06-22T10:37:16.914Z,8.50
2023-06-22T10:39:43.081Z,9.00
2023-06-22T10:42:09.174Z,7.40
2023-06-22T10:44:35.357Z,7.90
2023-06-22T10:47:01.471Z,7.90
2023-06-22T10:49:27.602Z,7.30
2023-06-22T10:51:53.738Z,6.40
2023-06-22T10:54:19.911Z,6.70
2023-06-22T10:56:46.074Z,6.50
2023-06-22T10:59:12.286Z,7.40
2023-06-22T11:01:38.495Z,7.90
2023-06-22T11:04:05.228Z,7.90
2023-06-22T11:06:31.916Z,7.30
2023-06-22T11:09:11.662Z,6.70
2023-06-22T11:11:43.621Z,7.70
2023-06-22T11:14:09.846Z,7.40
2023-06-22T11:16:35.976Z,6.60
2023-06-22T11:19:03.635Z,8.10
2023-06-22T11:21:29.823Z,7.70
2023-06-22T11:23:55.930Z,8.10
2023-06-22T11:26:22.165Z,8.00
2023-06-22T11:28:48.343Z,8.50
2023-06-22T11:33:46.204Z,7.40
2023-06-22T11:36:12.403Z,7.30
2023-06-22T11:38:39.613Z,7.80
2023-06-22T11:41:06.050Z,7.80
2023-06-22T11:43:32.246Z,6.50
2023-06-22T11:45:58.358Z,7.00
2023-06-22T11:48:24.572Z,8.30
2023-06-22T11:50:50.714Z,8.50
2023-06-22T11:53:20.067Z,8.30
2023-06-22T11:55:46.293Z,7.40
2023-06-22T11:58:12.648Z,7.60
2023-06-22T12:00:50.217Z,8.20
2023-06-22T12:03:18.134Z,7.00
2023-06-22T12:05:44.359Z,7.70
2023-06-22T12:08:10.548Z,7.70
2023-06-22T12:10:36.726Z,7.90
2023-06-22T12:13:02.999Z,8.00
2023-06-22T12:15:29.133Z,8.40
2023-06-22T12:17:55.315Z,9.50
2023-06-22T12:20:22.636Z,8.50
2023-06-22T12:22:52.050Z,8.50
2023-06-22T12:25:18.319Z,8.90
2023-06-22T12:27:44.499Z,8.60
2023-06-22T12:30:10.603Z,8.70
2023-06-22T12:32:37.056Z,7.80
2023-06-22T12:35:03.770Z,9.00
2023-06-22T12:37:31.986Z,9.40
2023-06-22T12:39:58.485Z,9.10
2023-06-22T12:42:26.699Z,10.00
2023-06-22T12:44:54.101Z,8.40
2023-06-22T12:47:20.699Z,8.40
2023-06-22T12:49:46.853Z,9.70
2023-06-22T12:52:13.090Z,8.50
2023-06-22T12:54:50.433Z,9.50
2023-06-22T12:57:21.432Z,8.70
2023-06-22T12:59:47.733Z,7.70
2023-06-22T13:02:14.152Z,8.00
2023-06-22T13:04:40.585Z,8.50
2023-06-22T13:07:17.903Z,8.50
2023-06-22T13:09:47.044Z,8.30
2023-06-22T13:12:13.243Z,8.60
2023-06-22T13:14:39.372Z,8.40
2023-06-22T13:17:05.963Z,8.50
2023-06-22T13:19:33.095Z,8.70
2023-06-22T13:21:59.730Z,8.60
2023-06-22T13:24:25.827Z,8.30
2023-06-22T13:26:52.107Z,7.50
2023-06-22T13:29:18.321Z,8.00
2023-06-22T13:31:44.478Z,7.90
2023-06-22T13:34:10.767Z,9.20
2023-06-22T13:36:36.892Z,8.50
2023-06-22T13:39:03.997Z,8.70
2023-06-22T13:41:30.161Z,9.40
2023-06-22T13:43:56.391Z,9.00
2023-06-22T13:46:22.604Z,8.70
2023-06-22T13:48:48.891Z,10.20
2023-06-22T13:51:14.999Z,11.50
2023-06-22T13:53:41.212Z,12.20
2023-06-22T13:56:07.427Z,11.30
2023-06-22T13:58:33.617Z,14.60
2023-06-22T14:00:59.769Z,12.00
2023-06-22T14:03:26.049Z,11.30
2023-06-22T14:05:54.607Z,12.50
2023-06-22T14:08:40.211Z,11.60
2023-06-22T14:11:07.698Z,10.60
2023-06-22T14:13:35.999Z,10.50
2023-06-22T14:16:02.144Z,11.20
2023-06-22T14:18:28.791Z,14.10
2023-06-22T14:20:54.971Z,17.10
2023-06-22T14:23:21.122Z,14.90
2023-06-22T14:25:47.327Z,14.30
2023-06-22T14:28:13.553Z,14.70
2023-06-22T14:30:39.669Z,14.30
2023-06-22T14:33:05.949Z,13.30
2023-06-22T14:35:32.124Z,12.70
2023-06-22T14:37:58.272Z,13.40
2023-06-22T14:40:26.622Z,12.20
2023-06-22T14:42:53.563Z,13.30
2023-06-22T14:45:19.781Z,13.20
2023-06-22T14:47:46.008Z,13.40
2023-06-22T14:50:12.164Z,13.10
2023-06-22T14:52:38.298Z,14.10
2023-06-22T14:55:04.597Z,12.70
2023-06-22T14:57:30.823Z,12.70
2023-06-22T14:59:57.061Z,12.40
2023-06-22T15:02:23.604Z,11.90
2023-06-22T15:04:49.946Z,10.00
2023-06-22T15:07:16.062Z,9.20
2023-06-22T15:09:43.171Z,9.70
2023-06-22T15:12:11.835Z,10.10
2023-06-22T15:14:37.957Z,9.80
2023-06-22T15:17:04.166Z,9.90
2023-06-22T15:19:30.588Z,9.80
2023-06-22T15:21:56.774Z,9.50
2023-06-22T15:24:23.090Z,10.00
2023-06-22T15:26:49.288Z,9.80
2023-06-22T15:29:15.709Z,8.60
2023-06-22T15:31:42.016Z,8.60
2023-06-22T15:34:08.166Z,9.90
2023-06-22T15:36:34.294Z,11.50
2023-06-22T15:39:00.448Z,10.70
2023-06-22T15:41:28.568Z,9.90
2023-06-22T15:43:55.694Z,10.00
2023-06-22T15:46:21.892Z,16.00
2023-06-22T15:48:49.860Z,10.10
2023-06-22T15:51:17.208Z,9.90
2023-06-22T15:53:43.399Z,9.70
2023-06-22T15:56:12.359Z,9.70
2023-06-22T15:58:39.087Z,9.60
2023-06-22T16:01:05.820Z,9.10
2023-06-22T16:03:32.104Z,10.00
2023-06-22T16:05:58.344Z,10.20
2023-06-22T16:08:25.778Z,9.70
2023-06-22T16:10:52.404Z,9.20
2023-06-22T16:13:18.496Z,9.40
2023-06-22T16:15:44.825Z,9.00
2023-06-22T16:18:11.160Z,9.20
2023-06-22T16:20:37.558Z,11.20
2023-06-22T16:23:03.779Z,11.50
2023-06-22T16:25:30.057Z,16.10
2023-06-22T16:27:56.754Z,14.00
2023-06-22T16:30:23.097Z,9.70
2023-06-22T16:32:49.293Z,10.10
2023-06-22T16:35:15.769Z,11.80
2023-06-22T16:37:42.029Z,11.20
2023-06-22T16:40:10.478Z,10.50
2023-06-22T16:42:36.809Z,10.40
2023-06-22T16:45:03.988Z,12.90
2023-06-22T16:47:30.387Z,12.70
2023-06-22T16:49:56.776Z,13.90
2023-06-22T16:52:23.030Z,13.10
2023-06-22T16:55:00.151Z,13.70
2023-06-22T16:57:27.848Z,14.50
2023-06-22T16:59:54.297Z,11.80
2023-06-22T17:02:20.548Z,10.50
2023-06-22T17:04:46.734Z,11.00
2023-06-22T17:07:12.928Z,10.80
2023-06-22T17:09:39.175Z,11.90
2023-06-22T17:12:06.126Z,12.50
2023-06-22T17:14:32.243Z,11.80
2023-06-22T17:16:58.471Z,12.00
2023-06-22T17:19:24.784Z,11.40
2023-06-22T17:21:51.086Z,12.50
2023-06-22T17:24:18.083Z,12.60
2023-06-22T17:26:44.244Z,12.90
2023-06-22T17:29:10.429Z,12.60
2023-06-22T17:31:37.590Z,12.00
2023-06-22T17:34:03.917Z,13.60
2023-06-22T17:36:30.088Z,13.20
2023-06-22T17:38:56.276Z,11.90
2023-06-22T17:41:22.421Z,12.10
2023-06-22T17:43:48.567Z,12.70
2023-06-22T17:46:16.624Z,12.10
2023-06-22T17:48:42.782Z,12.40
2023-06-22T17:51:10.148Z,12.60
2023-06-22T17:53:36.238Z,12.00
2023-06-22T17:56:03.069Z,12.40
2023-06-22T17:58:29.800Z,12.10
2023-06-22T18:00:56.020Z,12.50
2023-06-22T18:03:22.309Z,12.30
2023-06-22T18:05:48.734Z,11.80
2023-06-22T18:08:16.240Z,10.90
2023-06-22T18:10:42.455Z,10.80
2023-06-22T18:13:08.617Z,10.40
2023-06-22T18:15:35.663Z,11.30
2023-06-22T18:18:02.070Z,11.80
2023-06-22T18:20:29.301Z,11.90
2023-06-22T18:22:55.514Z,11.70
2023-06-22T18:25:21.699Z,12.20
2023-06-22T18:27:47.872Z,11.40
2023-06-22T18:30:13.990Z,11.80
2023-06-22T18:32:40.755Z,12.30
2023-06-22T18:35:07.093Z,11.10
2023-06-22T18:37:33.352Z,11.10
2023-06-22T18:39:59.560Z,10.80
2023-06-22T18:42:25.802Z,10.60
2023-06-22T18:44:51.937Z,11.40
2023-06-22T18:47:18.159Z,10.90
2023-06-22T18:49:44.310Z,10.90
2023-06-22T18:52:10.442Z,10.90
2023-06-22T18:54:36.622Z,11.10
2023-06-22T18:57:03.571Z,11.10
2023-06-22T18:59:29.810Z,11.00
2023-06-22T19:01:56.006Z,11.10
2023-06-22T19:04:22.319Z,10.80
2023-06-22T19:06:48.432Z,10.80
2023-06-22T19:09:14.640Z,10.70
2023-06-22T19:11:40.983Z,12.40
2023-06-22T19:14:07.187Z,13.40
2023-06-22T19:16:33.389Z,13.10
2023-06-22T19:19:00.603Z,13.00
2023-06-22T19:21:26.827Z,12.90
2023-06-22T19:23:53.222Z,14.70
2023-06-22T19:26:19.319Z,16.20
2023-06-22T19:28:46.488Z,15.20
2023-06-22T19:31:12.805Z,14.80
2023-06-22T19:33:39.017Z,13.30
2023-06-22T19:36:05.397Z,13.90
2023-06-22T19:38:33.149Z,12.60
2023-06-22T19:40:59.368Z,13.30
2023-06-22T19:43:25.780Z,12.20
2023-06-22T19:45:51.967Z,11.80
2023-06-22T19:48:18.153Z,13.00
2023-06-22T19:50:44.597Z,13.80
2023-06-22T19:53:10.807Z,12.00
2023-06-22T19:55:37.319Z,12.10
2023-06-22T19:58:03.602Z,12.10
2023-06-22T20:00:30.093Z,11.70
2023-06-22T20:02:56.268Z,12.10
2023-06-22T20:05:23.499Z,12.10
2023-06-22T20:07:49.671Z,11.20
2023-06-22T20:10:16.176Z,11.50
2023-06-22T20:12:42.480Z,11.40
2023-06-22T20:15:08.705Z,11.70
2023-06-22T20:17:37.381Z,10.30
2023-06-22T20:20:05.284Z,10.90
2023-06-22T20:22:31.545Z,11.30
2023-06-22T20:24:57.894Z,11.30
2023-06-22T20:27:24.059Z,11.90
2023-06-22T20:29:50.260Z,11.70
2023-06-22T20:32:16.520Z,10.90
2023-06-22T20:34:44.979Z,11.40
2023-06-22T20:37:11.306Z,10.90
2023-06-22T20:39:37.627Z,11.50
2023-06-22T20:42:04.729Z,11.00
2023-06-22T20:44:31.175Z,10.80
2023-06-22T20:46:57.366Z,10.60
2023-06-22T20:49:23.656Z,10.80
2023-06-22T20:51:49.855Z,10.80
2023-06-22T20:54:17.956Z,10.40
2023-06-22T20:56:44.142Z,11.60
2023-06-22T20:59:10.287Z,11.30
2023-06-22T21:01:36.605Z,10.40
2023-06-22T21:04:02.881Z,10.90
2023-06-22T21:06:29.105Z,10.90
2023-06-22T21:08:55.242Z,11.20
2023-06-22T21:11:21.642Z,11.60
2023-06-22T21:13:47.760Z,11.00
2023-06-22T21:16:13.978Z,10.30
2023-06-22T21:18:40.083Z,10.40
2023-06-22T21:21:06.265Z,10.50
2023-06-22T21:23:32.444Z,10.70
2023-06-22T21:25:58.665Z,10.00
2023-06-22T21:28:25.833Z,9.60
2023-06-22T21:30:52.051Z,9.90
2023-06-22T21:33:18.575Z,10.80
2023-06-22T21:35:44.788Z,9.80
2023-06-22T21:38:11.048Z,10.70
2023-06-22T21:40:37.202Z,10.10
2023-06-22T21:43:04.868Z,10.20
2023-06-22T21:45:32.051Z,9.80
2023-06-22T21:47:58.559Z,10.10
2023-06-22T21:50:24.721Z,9.60
2023-06-22T21:52:51.161Z,10.80
2023-06-22T21:55:17.307Z,11.70
2023-06-22T21:57:43.434Z,11.20
2023-06-22T22:00:11.582Z,12.60
2023-06-22T22:02:37.768Z,12.30
2023-06-22T22:05:04.101Z,14.20
2023-06-22T22:07:30.845Z,14.50
2023-06-22T22:09:57.111Z,14.00
2023-06-22T22:12:23.346Z,16.80
2023-06-22T22:14:49.676Z,17.20
2023-06-22T22:17:15.781Z,18.50
2023-06-22T22:19:42.079Z,18.50
2023-06-22T22:22:08.303Z,19.50
2023-06-22T22:24:34.424Z,19.60
2023-06-22T22:27:00.885Z,18.90
2023-06-22T22:29:30.231Z,19.30
2023-06-22T22:31:56.424Z,20.70
2023-06-22T22:34:22.533Z,21.00
2023-06-22T22:36:48.705Z,21.00
2023-06-22T22:39:14.908Z,20.30
2023-06-22T22:41:41.037Z,19.40
2023-06-22T22:44:07.176Z,20.10
2023-06-22T22:46:35.345Z,18.90
2023-06-22T22:49:01.885Z,19.40
2023-06-22T22:51:28.000Z,19.80
2023-06-22T22:53:54.215Z,20.40
2023-06-22T22:56:20.628Z,20.30
2023-06-22T22:58:46.764Z,18.70
2023-06-22T23:01:12.899Z,20.10
2023-06-22T23:03:39.288Z,20.60
2023-06-22T23:06:05.837Z,20.90
2023-06-22T23:08:32.120Z,20.00
2023-06-22T23:10:58.261Z,21.20
2023-06-22T23:13:24.373Z,21.30
2023-06-22T23:15:51.756Z,20.50
2023-06-22T23:18:18.810Z,20.10
2023-06-22T23:20:44.972Z,20.00
2023-06-22T23:23:11.081Z,20.20
2023-06-22T23:25:38.569Z,20.90
2023-06-22T23:28:06.108Z,20.50
2023-06-22T23:30:32.215Z,19.40
2023-06-22T23:32:58.493Z,18.70
2023-06-22T23:35:24.763Z,19.80
2023-06-22T23:37:53.177Z,19.40
2023-06-22T23:40:19.934Z,19.80
2023-06-22T23:42:47.115Z,19.30
2023-06-22T23:45:13.829Z,19.10
2023-06-22T23:47:40.334Z,18.70
2023-06-22T23:50:06.987Z,18.00
2023-06-22T23:52:33.266Z,19.60
2023-06-22T23:54:59.466Z,17.90
2023-06-22T23:57:25.607Z,18.30
2023-06-22T23:59:52.572Z,20.50
